createdAt,value
2023-04-11T00:01:46.850Z,80.36
2023-04-11T00:04:15.214Z,83.32
2023-04-11T00:06:45.488Z,84.90
2023-04-11T00:09:12.756Z,86.10
2023-04-11T00:11:39.666Z,87.86
2023-04-11T00:14:09.390Z,89.81
2023-04-11T00:16:36.973Z,91.87
2023-04-11T00:19:03.731Z,94.40
2023-04-11T00:21:30.542Z,96.41
2023-04-11T00:23:57.606Z,98.41
2023-04-11T00:26:24.351Z,99.87
2023-04-11T00:28:51.180Z,99.40
2023-04-11T00:31:18.281Z,100.00
2023-04-11T00:33:45.217Z,100.00
2023-04-11T00:36:12.042Z,100.00
2023-04-11T00:38:39.028Z,100.00
2023-04-11T00:41:06.063Z,100.00
2023-04-11T00:43:32.796Z,100.00
2023-04-11T00:46:00.116Z,100.00
2023-04-11T00:48:28.748Z,100.00
2023-04-11T00:50:55.798Z,100.00
2023-04-11T00:53:23.011Z,100.00
2023-04-11T00:55:50.631Z,100.00
2023-04-11T00:58:17.560Z,100.00
2023-04-11T01:00:45.442Z,100.00
2023-04-11T01:03:12.991Z,100.00
2023-04-11T01:05:39.846Z,100.00
2023-04-11T01:08:08.091Z,100.00
2023-04-11T01:10:35.266Z,100.00
2023-04-11T01:13:02.274Z,100.00
2023-04-11T01:15:29.294Z,100.00
2023-04-11T01:17:58.178Z,100.00
2023-04-11T01:20:26.679Z,100.00
2023-04-11T01:22:54.152Z,100.00
2023-04-11T01:25:22.795Z,100.00
2023-04-11T01:27:50.041Z,100.00
2023-04-11T01:30:17.113Z,100.00
2023-04-11T01:32:44.123Z,100.00
2023-04-11T01:35:12.674Z,100.00
2023-04-11T01:37:39.840Z,100.00
2023-04-11T01:40:07.793Z,100.00
2023-04-11T01:42:34.790Z,100.00
2023-04-11T01:45:02.188Z,100.00
2023-04-11T01:47:28.989Z,100.00
2023-04-11T01:49:56.511Z,100.00
2023-04-11T01:52:23.636Z,100.00
2023-04-11T01:54:50.570Z,100.00
2023-04-11T01:57:17.487Z,100.00
2023-04-11T01:59:44.606Z,100.00
2023-04-11T02:02:11.895Z,100.00
2023-04-11T02:04:38.972Z,100.00
2023-04-11T02:07:06.491Z,100.00
2023-04-11T02:09:33.281Z,100.00
2023-04-11T02:12:00.164Z,100.00
2023-04-11T02:14:27.533Z,100.00
2023-04-11T02:16:56.069Z,100.00
2023-04-11T02:19:23.733Z,100.00
2023-04-11T02:21:50.782Z,100.00
2023-04-11T02:24:18.067Z,100.00
2023-04-11T02:26:44.792Z,100.00
2023-04-11T02:29:11.607Z,100.00
2023-04-11T02:31:38.747Z,100.00
2023-04-11T02:34:05.665Z,100.00
2023-04-11T02:36:32.611Z,100.00
2023-04-11T02:38:59.701Z,100.00
2023-04-11T02:41:26.553Z,100.00
2023-04-11T02:43:54.528Z,100.00
2023-04-11T02:46:21.524Z,100.00
2023-04-11T02:48:48.285Z,100.00
2023-04-11T02:51:15.071Z,100.00
2023-04-11T02:53:42.064Z,100.00
2023-04-11T02:56:11.066Z,100.00
2023-04-11T02:58:42.306Z,100.00
2023-04-11T03:01:12.195Z,100.00
2023-04-11T03:03:39.331Z,100.00
2023-04-11T03:06:09.547Z,100.00
2023-04-11T03:08:37.717Z,100.00
2023-04-11T03:11:05.049Z,100.00
2023-04-11T03:13:33.373Z,100.00
2023-04-11T03:16:00.294Z,100.00
2023-04-11T03:18:27.202Z,100.00
2023-04-11T03:20:53.922Z,100.00
2023-04-11T03:23:20.772Z,100.00
2023-04-11T03:25:49.016Z,100.00
2023-04-11T03:28:15.846Z,100.00
2023-04-11T03:30:43.322Z,100.00
2023-04-11T03:33:10.332Z,100.00
2023-04-11T03:35:37.590Z,100.00
2023-04-11T03:38:04.449Z,100.00
2023-04-11T03:40:31.418Z,100.00
2023-04-11T03:42:58.210Z,100.00
2023-04-11T03:45:24.911Z,100.00
2023-04-11T03:47:51.872Z,100.00
2023-04-11T03:50:18.873Z,100.00
2023-04-11T03:52:45.561Z,100.00
2023-04-11T03:55:12.430Z,100.00
2023-04-11T03:57:39.337Z,100.00
2023-04-11T04:00:07.415Z,100.00
2023-04-11T04:02:34.619Z,100.00
2023-04-11T04:05:01.958Z,100.00
2023-04-11T04:07:29.100Z,100.00
2023-04-11T04:09:55.865Z,100.00
2023-04-11T04:12:22.576Z,100.00
2023-04-11T04:14:49.689Z,100.00
2023-04-11T04:17:16.863Z,100.00
2023-04-11T04:19:44.639Z,100.00
2023-04-11T04:22:12.315Z,100.00
2023-04-11T04:24:40.063Z,100.00
2023-04-11T04:27:09.790Z,100.00
2023-04-11T04:29:46.329Z,100.00
2023-04-11T04:32:24.334Z,100.00
2023-04-11T04:34:55.483Z,100.00
2023-04-11T04:37:24.463Z,100.00
2023-04-11T04:39:55.742Z,100.00
2023-04-11T04:42:24.323Z,100.00
2023-04-11T04:44:53.361Z,100.00
2023-04-11T04:47:23.042Z,100.00
2023-04-11T04:49:50.142Z,100.00
2023-04-11T04:52:17.116Z,100.00
2023-04-11T04:54:44.494Z,100.00
2023-04-11T04:57:11.616Z,100.00
2023-04-11T04:59:38.743Z,100.00
2023-04-11T05:02:06.181Z,100.00
2023-04-11T05:04:34.622Z,100.00
2023-04-11T05:07:02.574Z,100.00
2023-04-11T05:09:29.768Z,100.00
2023-04-11T05:11:59.849Z,100.00
2023-04-11T05:14:27.326Z,100.00
2023-04-11T05:16:54.386Z,100.00
2023-04-11T05:19:21.203Z,100.00
2023-04-11T05:21:48.123Z,100.00
2023-04-11T05:24:16.207Z,100.00
2023-04-11T05:26:43.311Z,100.00
2023-04-11T05:29:11.654Z,100.00
2023-04-11T05:31:38.520Z,100.00
2023-04-11T05:34:05.312Z,100.00
2023-04-11T05:36:32.951Z,100.00
2023-04-11T05:38:59.916Z,100.00
2023-04-11T05:41:27.206Z,100.00
2023-04-11T05:43:54.906Z,100.00
2023-04-11T05:46:22.568Z,100.00
2023-04-11T05:48:49.431Z,100.00
2023-04-11T05:51:16.590Z,100.00
2023-04-11T05:53:44.246Z,100.00
2023-04-11T05:56:12.897Z,100.00
2023-04-11T05:58:43.008Z,100.00
2023-04-11T06:01:14.580Z,100.00
2023-04-11T06:03:42.592Z,100.00
2023-04-11T06:06:09.614Z,100.00
2023-04-11T06:08:36.484Z,100.00
2023-04-11T06:11:03.408Z,100.00
2023-04-11T06:13:30.858Z,100.00
2023-04-11T06:15:57.710Z,100.00
2023-04-11T06:18:24.737Z,100.00
2023-04-11T06:20:51.718Z,99.73
2023-04-11T06:23:18.658Z,99.83
2023-04-11T06:25:45.701Z,99.86
2023-04-11T06:28:12.566Z,98.53
2023-04-11T06:30:39.308Z,98.45
2023-04-11T06:33:06.504Z,98.48
2023-04-11T06:35:33.614Z,97.18
2023-04-11T06:38:00.439Z,97.02
2023-04-11T06:40:27.227Z,96.78
2023-04-11T06:42:54.205Z,95.65
2023-04-11T06:45:21.456Z,95.82
2023-04-11T06:47:48.509Z,94.01
2023-04-11T06:50:15.748Z,94.13
2023-04-11T06:52:43.291Z,93.24
2023-04-11T06:55:10.545Z,93.16
2023-04-11T06:57:37.740Z,93.20
2023-04-11T07:00:07.761Z,91.79
2023-04-11T07:02:38.049Z,90.43
2023-04-11T07:05:05.986Z,90.46
2023-04-11T07:07:33.435Z,90.46
2023-04-11T07:10:00.209Z,90.06
2023-04-11T07:12:28.657Z,89.51
2023-04-11T07:14:56.360Z,89.20
2023-04-11T07:17:23.664Z,87.12
2023-04-11T07:19:51.257Z,85.60
2023-04-11T07:22:19.646Z,86.67
2023-04-11T07:24:47.222Z,85.21
2023-04-11T07:27:14.693Z,85.35
2023-04-11T07:29:42.044Z,84.55
2023-04-11T07:32:09.320Z,84.24
2023-04-11T07:34:36.135Z,83.13
2023-04-11T07:37:03.876Z,80.21
2023-04-11T07:39:30.945Z,78.70
2023-04-11T07:41:58.235Z,76.49
2023-04-11T07:44:27.211Z,77.03
2023-04-11T07:46:54.345Z,77.36
2023-04-11T07:49:21.600Z,77.91
2023-04-11T07:51:49.162Z,77.26
2023-04-11T07:54:16.095Z,77.81
2023-04-11T07:56:43.133Z,76.08
2023-04-11T07:59:10.288Z,77.72
2023-04-11T08:01:37.941Z,77.83
2023-04-11T08:04:06.434Z,77.14
2023-04-11T08:06:34.638Z,77.54
2023-04-11T08:09:02.119Z,76.90
2023-04-11T08:11:29.125Z,76.68
2023-04-11T08:13:56.285Z,78.43
2023-04-11T08:16:23.920Z,80.49
2023-04-11T08:18:50.783Z,81.39
2023-04-11T08:21:17.609Z,82.47
2023-04-11T08:23:44.680Z,83.58
2023-04-11T08:26:13.124Z,82.78
2023-04-11T08:28:42.952Z,83.31
2023-04-11T08:31:13.707Z,81.75
2023-04-11T08:33:42.233Z,83.28
2023-04-11T08:36:10.875Z,82.67
2023-04-11T08:38:38.702Z,84.72
2023-04-11T08:41:06.495Z,84.58
2023-04-11T08:43:34.858Z,85.55
2023-04-11T08:46:04.355Z,84.49
2023-04-11T08:48:32.618Z,83.51
2023-04-11T08:50:59.875Z,83.42
2023-04-11T08:53:27.685Z,81.69
2023-04-11T08:55:54.846Z,79.53
2023-04-11T08:58:21.933Z,79.29
2023-04-11T09:00:49.899Z,78.29
2023-04-11T09:03:17.800Z,78.95
2023-04-11T09:05:47.253Z,77.82
2023-04-11T09:08:16.366Z,75.75
2023-04-11T09:10:47.921Z,73.63
2023-04-11T09:13:23.700Z,73.46
2023-04-11T09:16:09.716Z,76.05
2023-04-11T09:18:41.843Z,74.63
2023-04-11T09:21:13.686Z,75.66
2023-04-11T09:23:41.525Z,74.66
2023-04-11T09:26:10.604Z,74.71
2023-04-11T09:28:45.082Z,72.91
2023-04-11T09:31:13.794Z,73.69
2023-04-11T09:33:54.027Z,75.70
2023-04-11T09:36:23.325Z,75.75
2023-04-11T09:38:51.712Z,73.33
2023-04-11T09:41:31.340Z,71.92
2023-04-11T09:43:59.167Z,72.16
2023-04-11T09:46:27.517Z,68.45
2023-04-11T09:48:55.240Z,65.73
2023-04-11T09:53:53.212Z,67.54
2023-04-11T09:56:20.396Z,66.27
2023-04-11T09:58:48.357Z,65.09
2023-04-11T10:01:16.618Z,66.28
2023-04-11T10:03:43.766Z,67.16
2023-04-11T10:06:14.798Z,67.49
2023-04-11T10:08:43.230Z,67.53
2023-04-11T10:11:12.143Z,68.05
2023-04-11T10:13:45.391Z,67.26
2023-04-11T10:16:17.190Z,68.28
2023-04-11T10:19:23.360Z,63.83
2023-04-11T10:21:50.304Z,63.12
2023-04-11T10:24:18.906Z,61.96
2023-04-11T10:26:52.520Z,63.09
2023-04-11T10:29:51.379Z,62.68
2023-04-11T10:32:20.804Z,62.89
2023-04-11T10:35:20.936Z,61.18
2023-04-11T10:37:49.133Z,60.66
2023-04-11T10:40:17.255Z,60.47
2023-04-11T10:42:46.116Z,57.69
2023-04-11T10:45:25.254Z,55.08
2023-04-11T10:48:13.453Z,55.19
2023-04-11T10:50:46.626Z,56.19
2023-04-11T10:53:37.518Z,55.30
2023-04-11T10:56:05.472Z,55.50
2023-04-11T10:58:35.899Z,55.92
2023-04-11T11:01:25.909Z,56.45
2023-04-11T11:04:04.718Z,57.13
2023-04-11T11:06:38.052Z,53.07
2023-04-11T11:09:24.150Z,54.46
2023-04-11T11:12:11.472Z,54.65
2023-04-11T11:14:46.164Z,54.44
2023-04-11T11:17:14.169Z,55.35
2023-04-11T11:19:47.990Z,54.59
2023-04-11T11:22:16.283Z,54.56
2023-04-11T11:24:43.041Z,55.32
2023-04-11T11:27:22.194Z,53.30
2023-04-11T11:29:50.344Z,54.42
2023-04-11T11:32:29.229Z,54.45
2023-04-11T11:34:58.070Z,54.54
2023-04-11T11:37:25.376Z,55.87
2023-04-11T11:39:52.418Z,50.54
2023-04-11T11:42:20.183Z,50.25
2023-04-11T11:44:47.368Z,51.26
2023-04-11T11:47:17.577Z,50.79
2023-04-11T11:49:49.470Z,53.17
2023-04-11T11:52:41.979Z,52.40
2023-04-11T11:55:38.584Z,50.34
2023-04-11T11:58:06.357Z,50.25
2023-04-11T12:00:38.505Z,49.33
2023-04-11T12:03:06.307Z,50.11
2023-04-11T12:05:35.419Z,47.05
2023-04-11T12:08:05.536Z,46.20
2023-04-11T12:10:40.660Z,46.46
2023-04-11T12:13:25.742Z,46.84
2023-04-11T12:15:57.775Z,47.24
2023-04-11T12:18:26.608Z,47.33
2023-04-11T12:20:54.241Z,47.52
2023-04-11T12:23:21.769Z,47.60
2023-04-11T12:25:49.101Z,47.25
2023-04-11T12:28:16.184Z,48.38
2023-04-11T12:30:43.162Z,48.47
2023-04-11T12:33:10.110Z,48.83
2023-04-11T12:35:40.262Z,46.26
2023-04-11T12:38:11.878Z,45.55
2023-04-11T12:40:40.688Z,46.84
2023-04-11T12:43:07.629Z,46.54
2023-04-11T12:45:34.782Z,44.91
2023-04-11T12:48:02.175Z,45.58
2023-04-11T12:50:30.390Z,45.52
2023-04-11T12:52:57.290Z,45.18
2023-04-11T12:55:24.599Z,45.79
2023-04-11T12:57:51.888Z,43.97
2023-04-11T13:00:19.331Z,44.21
2023-04-11T13:02:47.356Z,44.16
2023-04-11T13:05:15.811Z,39.10
2023-04-11T13:07:45.770Z,39.88
2023-04-11T13:10:14.392Z,40.23
2023-04-11T13:12:45.800Z,40.17
2023-04-11T13:15:15.557Z,40.95
2023-04-11T13:17:43.471Z,40.55
2023-04-11T13:20:11.333Z,40.97
2023-04-11T13:22:42.427Z,40.83
2023-04-11T13:25:11.044Z,42.56
2023-04-11T13:27:39.826Z,42.58
2023-04-11T13:30:08.420Z,41.80
2023-04-11T13:32:35.333Z,42.30
2023-04-11T13:35:02.695Z,41.51
2023-04-11T13:37:29.424Z,41.77
2023-04-11T13:39:56.454Z,41.42
2023-04-11T13:42:23.947Z,41.34
2023-04-11T13:44:50.886Z,41.62
2023-04-11T13:47:17.923Z,42.69
2023-04-11T13:49:45.270Z,43.25
2023-04-11T13:52:11.958Z,44.10
2023-04-11T13:54:39.466Z,44.29
2023-04-11T13:57:09.803Z,44.78
2023-04-11T13:59:37.375Z,45.08
2023-04-11T14:02:05.205Z,45.63
2023-04-11T14:04:35.661Z,46.64
2023-04-11T14:07:04.024Z,46.78
2023-04-11T14:09:31.469Z,47.51
2023-04-11T14:11:58.828Z,48.17
2023-04-11T14:14:26.436Z,49.08
2023-04-11T14:16:53.754Z,49.10
2023-04-11T14:19:23.064Z,47.62
2023-04-11T14:21:52.373Z,47.84
2023-04-11T14:24:22.564Z,48.77
2023-04-11T14:26:50.672Z,48.96
2023-04-11T14:29:19.083Z,48.93
2023-04-11T14:31:47.321Z,49.93
2023-04-11T14:34:14.454Z,50.06
2023-04-11T14:36:41.720Z,43.03
2023-04-11T14:39:08.870Z,48.58
2023-04-11T14:41:36.036Z,50.20
2023-04-11T14:44:03.502Z,51.24
2023-04-11T14:46:30.953Z,51.75
2023-04-11T14:48:58.084Z,51.66
2023-04-11T14:51:27.629Z,52.66
2023-04-11T14:53:55.683Z,53.38
2023-04-11T14:56:26.484Z,53.47
2023-04-11T14:58:53.863Z,55.14
2023-04-11T15:01:21.512Z,55.75
2023-04-11T15:03:49.655Z,56.55
2023-04-11T15:06:16.628Z,56.47
2023-04-11T15:08:43.812Z,57.04
2023-04-11T15:11:11.130Z,56.13
2023-04-11T15:13:37.935Z,55.34
2023-04-11T15:16:05.986Z,54.70
2023-04-11T15:18:35.352Z,53.68
2023-04-11T15:21:03.720Z,54.02
2023-04-11T15:23:31.087Z,53.73
2023-04-11T15:26:00.051Z,53.54
2023-04-11T15:28:28.408Z,52.39
2023-04-11T15:30:56.395Z,50.26
2023-04-11T15:33:24.474Z,49.89
2023-04-11T15:35:58.537Z,49.95
2023-04-11T15:38:27.912Z,50.64
2023-04-11T15:40:56.585Z,49.00
2023-04-11T15:43:24.000Z,49.03
2023-04-11T15:45:53.069Z,48.55
2023-04-11T15:48:20.043Z,48.59
2023-04-11T15:50:47.254Z,48.81
2023-04-11T15:53:14.430Z,49.31
2023-04-11T15:55:43.436Z,50.32
2023-04-11T15:58:11.281Z,46.94
2023-04-11T16:00:46.008Z,42.76
2023-04-11T16:03:14.374Z,43.55
2023-04-11T16:05:43.497Z,46.36
2023-04-11T16:08:10.774Z,48.14
2023-04-11T16:10:37.878Z,47.94
2023-04-11T16:13:06.580Z,49.11
2023-04-11T16:15:33.841Z,49.21
2023-04-11T16:18:00.829Z,49.96
2023-04-11T16:20:27.842Z,49.81
2023-04-11T16:22:55.395Z,49.36
2023-04-11T16:25:22.520Z,48.55
2023-04-11T16:27:50.615Z,47.09
2023-04-11T16:30:17.712Z,46.50
2023-04-11T16:32:44.847Z,47.72
2023-04-11T16:35:12.299Z,46.89
2023-04-11T16:37:39.487Z,46.24
2023-04-11T16:40:13.608Z,46.09
2023-04-11T16:42:40.781Z,46.79
2023-04-11T16:45:08.922Z,47.03
2023-04-11T16:47:36.081Z,48.46
2023-04-11T16:50:02.927Z,47.96
2023-04-11T16:52:30.311Z,47.88
2023-04-11T16:54:57.552Z,46.84
2023-04-11T16:57:25.236Z,46.18
2023-04-11T16:59:52.511Z,46.81
2023-04-11T17:02:19.605Z,44.92
2023-04-11T17:04:46.719Z,46.10
2023-04-11T17:07:13.992Z,43.87
2023-04-11T17:09:42.588Z,42.51
2023-04-11T17:12:09.834Z,40.98
2023-04-11T17:14:38.176Z,41.45
2023-04-11T17:17:05.231Z,39.77
2023-04-11T17:19:32.594Z,40.03
2023-04-11T17:22:00.112Z,39.75
2023-04-11T17:24:27.388Z,41.01
2023-04-11T17:26:54.644Z,42.61
2023-04-11T17:29:21.494Z,41.65
2023-04-11T17:31:48.491Z,42.74
2023-04-11T17:34:15.396Z,43.15
2023-04-11T17:36:43.185Z,43.53
2023-04-11T17:39:18.320Z,43.52
2023-04-11T17:41:46.229Z,45.07
2023-04-11T17:44:13.721Z,44.98
2023-04-11T17:46:40.729Z,45.32
2023-04-11T17:49:07.684Z,46.16
2023-04-11T17:51:35.290Z,46.17
2023-04-11T17:54:03.056Z,45.67
2023-04-11T17:56:30.554Z,46.70
2023-04-11T17:58:57.391Z,47.58
2023-04-11T18:01:25.441Z,46.30
2023-04-11T18:03:53.271Z,45.93
2023-04-11T18:06:20.194Z,46.60
2023-04-11T18:08:51.543Z,47.52
2023-04-11T18:11:19.954Z,47.70
2023-04-11T18:13:49.844Z,46.56
2023-04-11T18:16:17.339Z,48.19
2023-04-11T18:18:47.679Z,48.80
2023-04-11T18:21:16.345Z,49.00
2023-04-11T18:23:43.128Z,49.31
2023-04-11T18:26:10.075Z,50.06
2023-04-11T18:28:36.862Z,49.75
2023-04-11T18:31:03.634Z,50.30
2023-04-11T18:33:30.714Z,51.78
2023-04-11T18:35:57.480Z,50.81
2023-04-11T18:38:24.370Z,51.72
2023-04-11T18:40:55.084Z,52.83
2023-04-11T18:43:22.971Z,54.06
2023-04-11T18:45:50.231Z,54.58
2023-04-11T18:48:17.247Z,55.56
2023-04-11T18:50:47.411Z,56.47
2023-04-11T18:53:15.170Z,57.09
2023-04-11T18:55:41.979Z,58.01
2023-04-11T18:58:09.558Z,59.15
2023-04-11T19:00:39.476Z,59.75
2023-04-11T19:03:07.466Z,60.34
2023-04-11T19:05:34.745Z,60.96
2023-04-11T19:08:01.974Z,62.11
2023-04-11T19:10:28.711Z,61.54
2023-04-11T19:12:55.674Z,62.66
2023-04-11T19:15:22.553Z,62.59
2023-04-11T19:17:49.522Z,63.96
2023-04-11T19:20:16.979Z,64.93
2023-04-11T19:22:43.970Z,64.75
2023-04-11T19:25:11.501Z,65.32
2023-04-11T19:27:42.776Z,65.90
2023-04-11T19:30:11.361Z,66.37
2023-04-11T19:32:43.810Z,65.61
2023-04-11T19:35:14.449Z,66.45
2023-04-11T19:37:41.427Z,67.58
2023-04-11T19:40:11.412Z,69.84
2023-04-11T19:42:40.441Z,70.42
2023-04-11T19:45:09.596Z,70.27
2023-04-11T19:47:37.096Z,70.85
2023-04-11T19:50:04.224Z,70.26
2023-04-11T19:52:31.398Z,72.12
2023-04-11T19:54:58.259Z,72.17
2023-04-11T19:57:28.273Z,72.82
2023-04-11T19:59:55.082Z,73.07
2023-04-11T20:02:22.154Z,73.00
2023-04-11T20:04:49.760Z,73.24
2023-04-11T20:07:16.771Z,73.25
2023-04-11T20:09:43.890Z,72.53
2023-04-11T20:12:11.113Z,73.42
2023-04-11T20:14:38.529Z,73.32
2023-04-11T20:17:06.469Z,73.22
2023-04-11T20:19:33.519Z,74.06
2023-04-11T20:22:01.269Z,73.85
2023-04-11T20:24:28.313Z,74.01
2023-04-11T20:26:57.281Z,74.21
2023-04-11T20:29:24.908Z,74.16
2023-04-11T20:31:51.803Z,75.89
2023-04-11T20:34:18.575Z,76.11
2023-04-11T20:36:45.701Z,77.05
2023-04-11T20:39:12.503Z,78.53
2023-04-11T20:41:40.993Z,77.29
2023-04-11T20:44:07.851Z,77.71
2023-04-11T20:46:39.726Z,78.77
2023-04-11T20:49:07.252Z,78.68
2023-04-11T20:51:34.836Z,78.22
2023-04-11T20:54:01.950Z,78.77
2023-04-11T20:56:35.411Z,78.31
2023-04-11T20:59:02.913Z,78.59
2023-04-11T21:01:33.372Z,79.23
2023-04-11T21:04:03.969Z,78.97
2023-04-11T21:06:32.044Z,79.08
2023-04-11T21:09:00.702Z,79.91
2023-04-11T21:11:27.484Z,79.94
2023-04-11T21:13:55.032Z,79.55
2023-04-11T21:16:22.704Z,80.18
2023-04-11T21:18:49.824Z,81.41
2023-04-11T21:21:16.621Z,80.11
2023-04-11T21:23:43.884Z,80.36
2023-04-11T21:26:10.876Z,82.52
2023-04-11T21:28:37.807Z,83.57
2023-04-11T21:31:05.201Z,83.24
2023-04-11T21:33:32.195Z,81.73
2023-04-11T21:35:59.054Z,82.71
2023-04-11T21:38:26.717Z,83.41
2023-04-11T21:40:53.495Z,83.86
2023-04-11T21:43:20.320Z,83.03
2023-04-11T21:45:47.060Z,82.86
2023-04-11T21:48:14.040Z,81.98
2023-04-11T21:50:41.123Z,82.02
2023-04-11T21:53:07.874Z,81.62
2023-04-11T21:55:34.609Z,83.86
2023-04-11T21:58:01.303Z,83.01
2023-04-11T22:00:28.136Z,84.19
2023-04-11T22:02:55.390Z,85.33
2023-04-11T22:05:22.472Z,84.83
2023-04-11T22:07:50.749Z,86.64
2023-04-11T22:10:23.621Z,86.36
2023-04-11T22:12:51.001Z,85.78
2023-04-11T22:15:18.709Z,85.78
2023-04-11T22:17:51.090Z,86.90
2023-04-11T22:20:18.747Z,84.93
2023-04-11T22:22:45.910Z,84.57
2023-04-11T22:25:12.747Z,86.15
2023-04-11T22:27:39.493Z,86.86
2023-04-11T22:30:07.793Z,87.04
2023-04-11T22:32:34.876Z,86.77
2023-04-11T22:35:01.704Z,87.47
2023-04-11T22:37:28.573Z,86.37
2023-04-11T22:39:55.392Z,86.79
2023-04-11T22:42:22.299Z,87.17
2023-04-11T22:44:49.107Z,87.04
2023-04-11T22:47:17.021Z,86.39
2023-04-11T22:49:45.163Z,86.96
2023-04-11T22:52:15.306Z,86.96
2023-04-11T22:54:43.081Z,86.26
2023-04-11T22:57:10.550Z,86.79
2023-04-11T22:59:37.420Z,87.84
2023-04-11T23:02:04.241Z,87.67
2023-04-11T23:04:31.886Z,88.11
2023-04-11T23:06:59.491Z,89.77
2023-04-11T23:09:26.653Z,89.03
2023-04-11T23:11:53.769Z,88.81
2023-04-11T23:14:22.601Z,89.41
2023-04-11T23:16:49.556Z,88.83
2023-04-11T23:19:17.683Z,88.61
2023-04-11T23:21:44.880Z,89.45
2023-04-11T23:24:11.915Z,90.44
2023-04-11T23:26:38.587Z,89.55
2023-04-11T23:29:05.391Z,88.86
2023-04-11T23:31:32.990Z,88.12
2023-04-11T23:34:01.002Z,91.48
2023-04-11T23:36:28.218Z,91.83
2023-04-11T23:38:55.136Z,91.88
2023-04-11T23:41:22.106Z,91.79
2023-04-11T23:43:48.923Z,91.48
2023-04-11T23:46:17.345Z,90.58
2023-04-11T23:48:44.509Z,91.22
2023-04-11T23:51:11.201Z,90.72
2023-04-11T23:53:37.874Z,91.02
2023-04-11T23:56:05.040Z,90.31
2023-04-11T23:58:31.733Z,90.53
